Latest Coastal Weather Observations for Albany Airport

IDW60701

Issued at 8:55 am WST Friday 18 April 2014 (issued every 10 minutes, with the page automatically refreshed every 10 minutes)

About coastal observations | Map of coastal stations | Coastal observations for WA | Marine services | Other Formats
Station Details ID: 009999 Name: ALBANY AIRPORT Lat: -34.94 Lon: 117.82 Height: 68.4 m
Data from the previous 72 hours. | See also: Recent months at Albany Airport
Date/Time
WST
Temp

°C
Wind Pressure Rain
since 9am
mm
Weather Cloud Vis
km
Sea
Height
m
Swell
Dir
 
Speed
knots
Gust
knots
hPa Trend Height
m
Period
s
Dir
18/08:30am 15.6 ENE 5 6 1024.3 - 0.4 - Mostly clear 10 - - - -
18/08:00am 14.1 CALM 0 0 1024.3 - 0.4 - Mostly clear 10 - - - -
18/07:30am 13.4 W 3 4 1024.3 - 0.4 - Mostly clear 10 - - - -
18/07:00am 12.4 CALM 0 0 1024.0 - 0.4 - Mostly clear 10 - - - -
18/06:30am 12.5 SSE 1 4 1024.1 - 0.4 - Mostly clear 10 - - - -
18/06:00am 12.3 N 1 3 1024.1 F 0.4 Fine Mostly cloudy 25 - - - -
18/05:30am 12.3 CALM 0 0 1024.1 - 0.4 - Cloudy 10 - - - -
18/05:00am 12.3 N 1 3 1024.1 - 0.4 - Cloudy 10 - - - -
18/04:30am 12.1 N 4 5 1024.1 - 0.4 - Cloudy 10 - - - -
18/04:00am 11.9 N 5 7 1023.9 - 0.4 - Cloudy 9 - - - -
18/03:30am 11.9 CALM 0 0 1024.0 - 0.4 - Cloudy 10 - - - -
18/03:00am 12.0 WNW 4 5 1024.1 - 0.4 - Cloudy 10 - - - -
18/02:30am 11.8 WNW 5 6 1024.1 - 0.4 - Cloudy 9 - - - -
18/02:04am 11.5 WNW 5 5 1024.2 - 0.4 - Partly cloudy 7 - - - -
18/02:00am 11.4 WNW 5 5 1024.3 - 0.4 - Partly cloudy 7 - - - -
18/01:30am 10.5 WNW 5 6 1024.5 - 0.4 - - 0.5 - - - -
18/01:00am 10.6 N 5 6 1024.4 - 0.4 - - 1 - - - -
18/12:30am 11.0 SE 2 6 1024.4 - 0.4 - - 0.9 - - - -
18/12:18am 12.4 S 3 3 1024.3 - 0.4 - Partly cloudy 6 - - - -
18/12:00am 13.2 SE 4 4 1024.2 - 0.4 - Partly cloudy 8 - - - -
 
Date/Time
WST
Temp

°C
Wind Pressure Rain
since 9am
mm
Weather Cloud Vis
km
Sea
Height
m
Swell
Dir
 
Speed
knots
Gust
knots
hPa Trend Height
m
Period
s
Dir
17/11:30pm 13.1 N 4 4 1024.6 - 0.4 - Partly cloudy 8 - - - -
17/11:00pm 13.8 NW 2 3 1024.9 - 0.4 - Partly cloudy 9 - - - -
17/10:30pm 13.8 NNE 1 3 1024.9 - 0.4 - Cloudy 9 - - - -
17/10:00pm 13.8 NNE 3 4 1024.9 - 0.4 - Partly cloudy 9 - - - -
17/09:30pm 14.1 E 3 3 1025.0 - 0.4 - Cloudy 9 - - - -
17/09:00pm 14.2 SE 3 5 1024.9 - 0.4 - Mostly cloudy 9 - - - -
17/08:37pm 14.3 SSE 4 6 1024.7 - 0.4 - Partly cloudy 9 - - - -
17/08:30pm 14.2 SSE 5 7 1024.7 - 0.4 - Partly cloudy 7 - - - -
17/08:00pm 14.7 S 6 9 1024.5 - 0.0 - Cloudy 5 - - - -
17/07:55pm 14.8 S 6 7 1024.5 - 0.0 - Partly cloudy 6 - - - -
17/07:30pm 14.9 S 7 10 1024.3 - 0.0 - Partly cloudy 9 - - - -
17/07:08pm 15.1 SSE 4 5 1024.0 - 0.0 - Partly cloudy 9 - - - -
17/07:00pm 15.1 S 5 9 1023.9 - 0.0 - Partly cloudy 8 - - - -
17/06:48pm 15.5 S 6 11 1023.8 - 0.0 - Partly cloudy 6 - - - -
17/06:30pm 16.1 S 5 7 1023.5 - 0.0 - Cloudy 10 - - - -
17/06:00pm 16.0 S 5 7 1023.1 - 0.0 - Cloudy 10 - - - -
17/05:38pm 15.9 S 6 8 1022.9 - 0.0 - Partly cloudy 8 - - - -
17/05:30pm 15.9 S 5 9 1022.7 - 0.0 - Partly cloudy 7 - - - -
17/05:12pm 16.4 S 8 12 1022.5 - 0.0 - Partly cloudy 6 - - - -
17/05:00pm 17.2 S 7 11 1022.3 - 0.0 Showers Partly cloudy 10 - - - -
17/04:30pm 17.6 S 9 13 1021.9 - 0.0 Showers Partly cloudy 10 - - - -
17/04:00pm 18.2 S 11 14 1021.7 - 0.0 Showers Partly cloudy 10 - - - -
17/03:30pm 18.6 SSW 13 17 1021.5 - 0.0 - Partly cloudy 10 - - - -
17/03:00pm 19.9 SW 11 16 1021.2 R 0.0 Fine Mostly cloudy 25 - - - -
17/02:30pm 19.4 SW 10 17 1020.9 - 0.0 - Partly cloudy 10 - - - -
17/02:00pm 18.4 W 8 11 1020.7 - 0.0 - Partly cloudy 10 - - - -
17/01:30pm 19.8 WSW 9 13 1020.5 - 0.0 Showers Partly cloudy 9 - - - -
17/01:00pm 20.0 W 8 10 1020.6 - 0.0 - Mostly clear 10 - - - -
17/12:30pm 19.7 W 10 16 1020.8 - 0.0 - Mostly clear 10 - - - -
17/12:00pm 19.5 SW 9 15 1021.0 R 0.0 Distant precip. Mostly cloudy 25 - - - -
17/11:30am 19.5 SW 8 12 1021.1 - 0.0 - Mostly clear 10 - - - -
17/11:00am 20.5 WSW 13 20 1020.8 - 0.0 Showers Mostly clear 10 - - - -
17/10:30am 20.0 W 11 15 1020.8 - 0.0 - Mostly clear 10 - - - -
17/10:00am 19.5 W 9 13 1020.7 - 0.0 - Mostly clear 10 - - - -
17/09:30am 18.2 W 9 13 1020.7 - 0.0 - Mostly clear 10 - - - -
17/09:00am 17.6 WNW 9 13 1020.5 R 0.0 Recent precip. Mostly cloudy 25 - - - -
17/08:30am 16.2 NW 8 12 1020.4 - 0.0 - Mostly clear 10 - - - -
17/08:06am 15.1 WNW 7 8 1020.4 - 0.0 - Partly cloudy 10 - - - -
17/08:00am 15.1 WNW 7 8 1020.4 - 0.0 - Partly cloudy 10 - - - -
17/07:30am 14.6 WNW 6 8 1019.8 - 0.0 - Mostly clear 9 - - - -
17/07:00am 14.6 WNW 9 14 1019.6 - 0.0 Showers Partly cloudy 6 - - - -
17/06:30am 14.4 NW 10 14 1019.1 - 0.0 - Mostly clear 10 - - - -
17/06:00am 13.6 WNW 7 9 1018.9 F 0.0 Fine Mostly cloudy 25 - - - -
17/05:30am 13.9 WNW 7 9 1018.8 - 0.0 - Partly cloudy 10 - - - -
17/05:00am 14.1 NW 8 11 1018.5 - 0.0 - Cloudy 10 - - - -
17/04:30am 12.8 NNW 6 9 1018.3 - 0.0 - Partly cloudy 10 - - - -
17/04:00am 12.6 NNW 7 9 1018.2 - 0.0 - Partly cloudy 10 - - - -
17/03:30am 13.1 NNW 7 9 1018.4 - 0.0 - Partly cloudy 10 - - - -
17/03:00am 12.7 NW 8 10 1018.5 - 0.0 - Mostly clear 10 - - - -
17/02:30am 12.8 NNW 7 9 1018.5 - 0.0 - - 10 - - - -
17/02:00am 13.3 NW 7 7 1018.6 - 0.0 - Partly cloudy 10 - - - -
17/01:30am 13.8 NW 7 8 1019.1 - 0.0 - Cloudy 10 - - - -
17/01:00am 12.5 NW 6 8 1019.0 - 0.0 - Cloudy 10 - - - -
17/12:30am 11.7 NW 7 8 1019.0 - 0.0 - Partly cloudy 10 - - - -
17/12:00am 10.3 WNW 5 7 1019.1 - 0.0 - - 10 - - - -
 
Date/Time
WST
Temp

°C
Wind Pressure Rain
since 9am
mm
Weather Cloud Vis
km
Sea
Height
m
Swell
Dir
 
Speed
knots
Gust
knots
hPa Trend Height
m
Period
s
Dir
16/11:30pm 10.3 NW 6 7 1019.1 - 0.0 - - 10 - - - -
16/11:00pm 10.7 NW 6 7 1019.3 - 0.0 - - 10 - - - -
16/10:30pm 10.9 NW 7 8 1019.6 - 0.0 - - 10 - - - -
16/10:00pm 11.6 NW 7 8 1019.6 - 0.0 - - 10 - - - -
16/09:30pm 11.5 NW 7 7 1019.5 - 0.0 - - 10 - - - -
16/09:00pm 12.5 NW 6 7 1019.6 - 0.0 - - 10 - - - -
16/08:30pm 12.7 NW 6 7 1019.6 - 0.0 - - 10 - - - -
16/08:00pm 14.9 W 7 9 1019.7 - 0.0 - - 10 - - - -
16/07:30pm 15.1 W 7 9 1019.5 - 0.0 - - 10 - - - -
16/07:00pm 15.7 W 9 10 1019.3 - 0.0 - - 10 - - - -
16/06:30pm 15.9 W 6 7 1019.2 - 0.0 - - 10 - - - -
16/06:00pm 16.6 W 7 9 1019.2 - 0.0 - - 10 - - - -
16/05:30pm 18.1 W 8 11 1019.2 - 0.0 - - 10 - - - -
16/05:00pm 19.1 W 8 11 1019.1 - 0.0 - Mostly clear 10 - - - -
16/04:30pm 19.1 W 9 12 1019.2 - 0.0 - Partly cloudy 10 - - - -
16/04:00pm 20.5 W 9 14 1019.4 - 0.0 - Partly cloudy 10 - - - -
16/03:30pm 20.6 WNW 11 17 1019.7 - 0.0 - Mostly cloudy 10 - - - -
16/03:00pm 20.2 WNW 11 15 1020.0 F 0.0 Fine Mostly cloudy 25 - - - -
16/02:30pm 19.8 WNW 13 16 1020.1 - 0.0 - Cloudy 10 - - - -
16/02:00pm 19.4 W 10 15 1020.2 - 0.0 - Cloudy 10 - - - -
16/01:30pm 19.2 W 11 13 1020.4 - 0.0 - Cloudy 10 - - - -
16/01:00pm 19.1 W 10 14 1020.6 - 0.0 - Cloudy 10 - - - -
16/12:30pm 18.7 W 11 15 1021.2 - 0.0 - Cloudy 10 - - - -
16/12:00pm 18.8 WNW 10 13 1021.7 F 0.0 Fine Cloudy 25 - - - -
16/11:30am 18.6 WNW 9 13 1022.1 - 0.0 - Cloudy 10 - - - -
16/11:00am 18.9 NW 9 13 1022.3 - 0.0 - Cloudy 10 - - - -
16/10:30am 18.3 NW 7 11 1022.4 - 0.0 - Cloudy 10 - - - -
16/10:00am 17.6 NNW 7 9 1022.7 - 0.0 - Cloudy 10 - - - -
16/09:30am 17.3 NW 6 8 1022.8 - 0.0 - Cloudy 10 - - - -
16/09:00am 16.4 NW 6 7 1022.9 R 1.6 Fine Cloudy 20 - - - -
16/08:30am 16.1 N 4 5 1022.8 - 1.6 - Cloudy 10 - - - -
16/08:00am 15.2 N 1 4 1022.7 - 1.6 - Cloudy 10 - - - -
16/07:30am 14.6 N 4 6 1022.5 - 1.6 - Cloudy 10 - - - -
16/07:00am 14.0 N 3 4 1022.2 - 1.6 - Cloudy 10 - - - -
16/06:30am 14.1 NNW 2 4 1022.0 - 1.6 - Cloudy 10 - - - -
16/06:00am 13.9 NW 1 4 1021.8 F 1.6 Fine Cloudy 20 - - - -
16/05:30am 14.0 WNW 5 6 1021.8 - 1.6 - Cloudy 10 - - - -
16/05:00am 13.7 WNW 6 9 1021.7 - 1.6 - Cloudy 10 - - - -
16/04:30am 13.8 WNW 5 6 1021.7 - 1.6 - Cloudy 10 - - - -
16/04:00am 13.9 WNW 5 6 1021.7 - 1.6 - Cloudy 10 - - - -
16/03:30am 13.9 WNW 6 7 1021.6 - 1.6 - Cloudy 10 - - - -
16/03:00am 13.9 NW 5 6 1021.6 - 1.6 - Mostly cloudy 10 - - - -
16/02:30am 13.8 WNW 6 7 1021.6 - 1.6 - Partly cloudy 9 - - - -
16/02:00am 13.6 WNW 6 7 1021.9 - 1.6 - Partly cloudy 9 - - - -
16/01:30am 13.4 NW 6 7 1022.1 - 1.6 - Cloudy 10 - - - -
16/01:00am 12.8 NW 6 7 1022.1 - 1.6 - Partly cloudy 9 - - - -
16/12:30am 13.4 NW 6 7 1022.1 - 1.6 - Cloudy 9 - - - -
16/12:00am 13.0 WNW 6 6 1022.0 - 1.4 - Partly cloudy 8 - - - -
 
Date/Time
WST
Temp

°C
Wind Pressure Rain
since 9am
mm
Weather Cloud Vis
km
Sea
Height
m
Swell
Dir
 
Speed
knots
Gust
knots
hPa Trend Height
m
Period
s
Dir
15/11:30pm 12.9 W 5 5 1022.1 - 1.4 - Partly cloudy 9 - - - -
15/11:00pm 14.3 W 6 6 1022.3 - 1.4 - Partly cloudy 9 - - - -
15/10:30pm 14.8 WSW 5 6 1022.5 - 1.4 - Partly cloudy 9 - - - -
15/10:00pm 16.2 WSW 6 7 1022.6 - 1.4 - Cloudy 10 - - - -
15/09:30pm 16.4 WSW 6 7 1022.6 - 1.4 - Cloudy 9 - - - -
15/09:00pm 16.4 WSW 6 9 1022.4 - 1.4 - Cloudy 9 - - - -
15/08:30pm 16.2 SW 7 9 1022.1 - 1.4 - Partly cloudy 8 - - - -
15/08:00pm 16.1 WSW 7 9 1021.6 - 1.4 - Partly cloudy 9 - - - -
15/07:30pm 16.1 WSW 8 11 1021.5 - 1.4 - Cloudy 9 - - - -
15/07:00pm 16.2 WSW 9 11 1021.3 - 1.4 - Cloudy 8 - - - -
15/06:30pm 16.1 SW 8 12 1020.8 - 1.4 - Partly cloudy - - - - -
15/06:24pm 16.2 WSW 8 11 1020.7 - 1.4 - Partly cloudy - - - - -
15/06:00pm 16.5 WSW 9 13 1020.4 - 1.2 - Cloudy - - - - -
15/05:46pm 16.5 WSW 12 16 1020.1 - 1.0 - Partly cloudy - - - - -
15/05:30pm 16.8 SW 13 21 1019.8 - 0.6 - Partly cloudy 3 - - - -
15/05:11pm 18.0 SW 14 22 1019.3 - 0.0 - Partly cloudy 6 - - - -
15/05:08pm 18.2 SW 15 22 1019.2 - 0.0 - Partly cloudy 10 - - - -
15/05:00pm 19.4 WSW 15 20 1019.0 - 0.0 Showers Mostly clear 10 - - - -
15/04:30pm 21.9 WSW 12 17 1018.5 - 0.0 Showers Partly cloudy 10 - - - -
15/04:00pm 22.9 W 12 17 1018.1 - 0.0 - Partly cloudy 10 - - - -
15/03:30pm 23.1 W 14 20 1017.9 - 0.0 - Mostly cloudy 10 - - - -
15/03:00pm 23.8 W 13 20 1017.8 R 0.0 Fine Mostly cloudy 30 - - - -
15/02:46pm 23.7 W 15 25 1017.8 - 0.0 - Mostly cloudy 10 - - - -
15/02:30pm 24.2 W 16 23 1017.6 - 0.0 - Mostly cloudy 10 - - - -
15/02:00pm 22.9 WNW 16 21 1017.6 - 0.0 - Mostly cloudy 10 - - - -
15/01:30pm 22.5 W 15 21 1018.0 - 0.0 - Mostly clear 10 - - - -
15/01:00pm 22.2 W 17 22 1017.9 - 0.0 - Mostly clear 10 - - - -
15/12:49pm 22.5 W 15 25 1018.1 - 0.0 - Mostly clear 10 - - - -
15/12:30pm 22.2 WSW 16 21 1018.2 - 0.0 - Mostly cloudy 10 - - - -
15/12:00pm 22.7 W 17 23 1018.4 R 0.0 Distant precip. Mostly cloudy 30 - - - -
15/11:30am 23.0 W 15 22 1018.3 - 0.0 - Partly cloudy 10 - - - -
15/11:00am 21.2 W 17 23 1018.4 - 0.0 - Partly cloudy 10 - - - -
15/10:30am 22.1 W 14 19 1018.3 - 0.0 - Mostly clear 10 - - - -
15/10:00am 20.7 WNW 14 19 1018.4 - 0.0 - Mostly clear 10 - - - -
15/09:30am 20.0 WNW 12 17 1018.5 - 0.0 - Mostly clear 10 - - - -
15/09:00am 18.6 WNW 13 18 1018.5 R 0.0 Showers Cloudy 15 - - - -

Other Formats:

Comma delimited format used in spreadsheet applications
http://www.bom.gov.au/fwo/IDW60701/IDW60701.94802.axf

JavaScript Object Notation format (JSON) in row-major order
http://www.bom.gov.au/fwo/IDW60701/IDW60701.94802.json